Sunday, December 17, 2017, 2:34 PM EST
Back to Local

KORH, Worcester Regional Airport

Location: Worcester, MA, United States Lat: 42.267
Local Time: 2:34 PM EST (19:34 GMT) Lon: -71.867
Time Zone: US/Eastern Elev: 1010 ft

Show me the last for .
Show Coded

Time T Td Feel RH Dir Speed Gust Alt SLP Vis Weather Sky Remarks
2017-12-17 13:54 24 0 15 34 300° 8 - 30.16 30.21 10 CLR None
2017-12-17 12:54 24 1 14 36 280° 9 - 30.17 30.23 10 CLR 6-hr Min Temp (1pm): 14.0°F
6-hr Max Temp (1pm): 24.1°F
2017-12-17 11:54 23 1 10 37 290° 15 - 30.19 30.24 10 CLR None
2017-12-17 10:54 21 3 7 44 290° 16 - 30.20 30.26 10 CLR None
2017-12-17 09:54 19 4 4 50 290° 18 - 30.21 30.26 10 CLR None
2017-12-17 08:54 17 4 3 55 280° 14 - 30.20 30.26 10 CLR None
2017-12-17 07:54 15 3 1 58 280° 14 - 30.20 30.25 10 CLR None
2017-12-17 06:54 13 3 -3 63 280° 16 - 30.18 30.24 10 FEW110 6-hr Min Temp (7am): 12.9°F
6-hr Max Temp (7am): 18.0°F
2017-12-17 05:54 13 2 -1 60 290° 12 - 30.19 30.25 10 CLR None
2017-12-17 04:54 14 2 1 57 280° 10 - 30.17 30.22 10 CLR None
2017-12-17 03:54 13 4 7 66 Variable 3 - 30.14 30.20 10 CLR None
2017-12-17 02:54 16 5 10 61 290° 3 - 30.15 30.20 10 CLR None
2017-12-17 01:54 16 4 7 58 290° 6 - 30.13 30.19 10 CLR None
2017-12-17 00:54 18 5 - 56 - Calm - 30.11 30.16 10 CLR 6-hr Min Temp (1am): 17.1°F
6-hr Max Temp (1am): 23.0°F
2017-12-16 23:54 18 5 10 56 280° 6 - 30.10 30.15 10 CLR 24-hr Min Temp (12am): 15.1°F
24-hr Max Temp (12am): 26.1°F
2017-12-16 22:54 20 5 7 51 280° 14 - 30.09 30.14 10 CLR None
2017-12-16 21:54 20 10 9 64 290° 9 - 30.08 30.13 10 CLR None
2017-12-16 20:54 20 10 9 64 300° 10 - 30.07 30.12 10 CLR None
2017-12-16 19:54 22 13 11 67 280° 10 - 30.03 30.09 10 CLR None
2017-12-16 18:54 23 16 13 74 260° 9 - 30.01 30.06 10 CLR 6-hr Precip Total (7pm): 0.00"
6-hr Min Temp (7pm): 21.9°F
6-hr Max Temp (7pm): 26.1°F
2017-12-16 17:54 24 18 15 77 270° 8 - 29.98 30.03 10 FEW025 SCT030 OVC070 None
2017-12-16 16:54 24 18 15 77 260° 8 - 29.94 29.99 10 OVC075 1-hr Precip Total: Trace
2017-12-16 16:34 24 18 16 77 260° 7 - 29.93 - 10 FEW038 OVC080 1-hr Precip Total: Trace
2017-12-16 15:54 24 19 14 80 260° 10 - 29.90 29.96 2 -SN OVC030 1-hr Precip Total: Trace
6-hr Precip Total (4pm): 0.00"
2017-12-16 15:52 25 19 15 79 260° 9 - 29.90 - 2 -SN OVC028 1-hr Precip Total: Trace
2017-12-16 15:06 25 18 15 73 270° 9 - 29.89 - 1 -SN BKN026 OVC035 None
2017-12-16 14:54 25 17 15 71 260° 10 - 29.88 29.93 2 -SN OVC028 1-hr Precip Total: Trace
2017-12-16 14:52 27 18 16 68 270° 12 - 29.88 - 2 -SN BKN028 OVC039 1-hr Precip Total: Trace

Support USWX by starting your Amazon purchase here.